Time;durP1;ratioP1;P1;durP2;ratioP2;P2;SDS_P1;SDS_P2;PMS_P1;PMS_P2;Temp;Humidity;BMP_temperature;BMP_pressure;BME280_temperature;BME280_humidity;BME280_pressure;Samples;Min_cycle;Max_cycle;Signal;HPM_P1;HPM_P2
2021/05/07 00:00:37;;;;;;;65.35;38.58;;;6.20;99.90;;;;;;5087593;28;20453;-58
2021/05/07 00:03:03;;;;;;;63.17;37.70;;;6.10;99.90;;;;;;5087124;28;20020;-55
2021/05/07 00:05:29;;;;;;;68.18;38.70;;;6.10;99.90;;;;;;5091294;28;20020;-54
2021/05/07 00:07:54;;;;;;;64.88;36.92;;;6.10;99.90;;;;;;5084790;28;20031;-55
2021/05/07 00:10:23;;;;;;;66.40;37.45;;;6.10;99.90;;;;;;5089672;28;20466;-58
2021/05/07 00:12:49;;;;;;;68.05;39.17;;;6.00;99.90;;;;;;5089103;28;20031;-55
2021/05/07 00:15:14;;;;;;;66.32;38.35;;;6.00;99.90;;;;;;5085860;28;20031;-58
2021/05/07 00:17:40;;;;;;;68.03;40.22;;;5.90;99.90;;;;;;5085987;28;20040;-55
2021/05/07 00:20:06;;;;;;;66.28;37.45;;;5.80;99.90;;;;;;5094327;28;20016;-58
2021/05/07 00:22:32;;;;;;;71.15;39.67;;;5.80;99.90;;;;;;5082612;28;20095;-57
2021/05/07 00:24:57;;;;;;;70.28;38.42;;;5.70;99.90;;;;;;5088569;28;20108;-53
2021/05/07 00:27:23;;;;;;;74.15;42.47;;;5.70;99.90;;;;;;5086733;28;20032;-55
2021/05/07 00:29:49;;;;;;;77.18;41.47;;;5.70;99.90;;;;;;5089657;28;20861;-56
2021/05/07 00:32:14;;;;;;;67.38;38.10;;;5.70;99.90;;;;;;5084733;28;20028;-54
2021/05/07 00:34:40;;;;;;;68.75;38.65;;;5.70;99.90;;;;;;5097270;28;20036;-53
2021/05/07 00:37:06;;;;;;;69.63;39.80;;;5.70;99.90;;;;;;5085590;28;20661;-54
2021/05/07 00:39:31;;;;;;;64.55;37.08;;;5.80;99.90;;;;;;5071966;28;20032;-57
2021/05/07 00:42:05;;;;;;;68.82;40.53;;;5.90;99.90;;;;;;5086333;28;20402;-56
2021/05/07 00:44:31;;;;;;;70.32;40.53;;;5.90;99.90;;;;;;5090166;28;20508;-57
2021/05/07 00:47:04;;;;;;;66.03;38.70;;;5.90;99.90;;;;;;5089542;28;20047;-54
2021/05/07 00:49:30;;;;;;;60.60;37.15;;;6.00;99.90;;;;;;5086920;28;20028;-57
2021/05/07 00:51:56;;;;;;;60.40;34.97;;;6.00;99.90;;;;;;5097924;28;20379;-57
2021/05/07 00:54:21;;;;;;;58.63;35.38;;;6.10;99.90;;;;;;5085740;28;20081;-56
2021/05/07 00:56:47;;;;;;;69.22;37.30;;;6.10;99.90;;;;;;5097495;28;20445;-57
2021/05/07 00:59:12;;;;;;;57.80;34.28;;;6.20;99.90;;;;;;5063266;28;20020;-57
2021/05/07 01:01:38;;;;;;;61.38;34.95;;;6.10;99.90;;;;;;5091981;28;20032;-57
2021/05/07 01:04:05;;;;;;;58.25;34.38;;;6.10;99.90;;;;;;5071395;28;20023;-57
2021/05/07 01:06:30;;;;;;;63.53;35.53;;;6.10;99.90;;;;;;5096610;28;20011;-53
2021/05/07 01:08:56;;;;;;;65.10;37.10;;;5.90;99.90;;;;;;5094913;28;20030;-56
2021/05/07 01:11:22;;;;;;;71.70;37.97;;;5.90;99.90;;;;;;5088518;28;20052;-57
2021/05/07 01:13:47;;;;;;;64.85;36.88;;;5.80;99.90;;;;;;5073576;28;20052;-55
2021/05/07 01:16:13;;;;;;;64.82;36.50;;;5.80;99.90;;;;;;5094805;28;20030;-54
2021/05/07 01:18:38;;;;;;;62.30;36.22;;;5.70;99.90;;;;;;5094369;28;20063;-55
2021/05/07 01:21:04;;;;;;;65.07;36.97;;;5.60;99.90;;;;;;5093785;28;20020;-57
2021/05/07 01:23:30;;;;;;;63.22;35.28;;;5.70;99.90;;;;;;5094090;28;20481;-57
2021/05/07 01:25:55;;;;;;;67.10;37.05;;;5.70;99.90;;;;;;5093552;28;20024;-55
2021/05/07 01:28:21;;;;;;;62.30;36.05;;;5.50;99.90;;;;;;5087491;28;20074;-56
2021/05/07 01:30:48;;;;;;;60.78;35.28;;;5.50;99.90;;;;;;5089967;28;20500;-57
2021/05/07 01:33:15;;;;;;;67.47;36.83;;;5.50;99.90;;;;;;5082800;28;20397;-56
2021/05/07 01:35:42;;;;;;;66.55;36.72;;;5.50;99.90;;;;;;5093035;28;20028;-56
2021/05/07 01:38:10;;;;;;;66.65;37.28;;;5.50;99.90;;;;;;5090130;28;20048;-56
2021/05/07 01:40:38;;;;;;;69.03;36.35;;;5.40;99.90;;;;;;5086616;28;20448;-53
2021/05/07 01:43:04;;;;;;;66.63;36.97;;;5.40;99.90;;;;;;5092306;28;20058;-54
2021/05/07 01:45:41;;;;;;;71.40;38.13;;;5.40;99.90;;;;;;5093738;28;20177;-56
2021/05/07 01:48:07;;;;;;;69.13;37.75;;;5.50;99.90;;;;;;5094768;28;20098;-56
2021/05/07 01:50:39;;;;;;;72.53;37.90;;;5.50;99.90;;;;;;5100876;28;20016;-55
2021/05/07 01:53:06;;;;;;;69.13;38.08;;;5.50;99.90;;;;;;5094014;28;20028;-54
2021/05/07 01:55:34;;;;;;;70.75;36.55;;;5.50;99.90;;;;;;5083193;28;20041;-58
2021/05/07 01:58:01;;;;;;;69.85;36.70;;;5.50;99.90;;;;;;5089215;28;20050;-57
2021/05/07 02:00:28;;;;;;;69.00;38.10;;;5.50;99.90;;;;;;5092747;28;20073;-58
2021/05/07 02:02:57;;;;;;;74.35;39.45;;;5.50;99.90;;;;;;5093996;28;20493;-56
2021/05/07 02:05:26;;;;;;;78.68;39.80;;;5.40;99.90;;;;;;5113296;28;20450;-55
2021/05/07 02:07:52;;;;;;;66.68;37.08;;;5.40;99.90;;;;;;5087408;28;20035;-56
2021/05/07 02:10:20;;;;;;;70.28;39.17;;;5.50;99.90;;;;;;5089397;28;20024;-54
2021/05/07 02:12:48;;;;;;;70.55;37.85;;;5.50;99.90;;;;;;5091764;28;20089;-53
2021/05/07 02:15:16;;;;;;;73.32;38.08;;;5.60;99.90;;;;;;5093168;28;20024;-57
2021/05/07 02:17:42;;;;;;;71.07;38.80;;;5.60;99.90;;;;;;5095304;28;20120;-56
2021/05/07 02:20:09;;;;;;;79.88;40.63;;;5.70;99.90;;;;;;5111405;28;20019;-54
2021/05/07 02:22:35;;;;;;;78.28;41.40;;;5.70;99.90;;;;;;5095420;28;20051;-55
2021/05/07 02:25:01;;;;;;;74.15;38.22;;;5.70;99.90;;;;;;5081561;28;20021;-55
2021/05/07 02:27:26;;;;;;;75.13;41.00;;;5.80;99.90;;;;;;5086029;28;20034;-56
2021/05/07 02:29:52;;;;;;;66.97;36.67;;;5.80;99.90;;;;;;5091638;28;20107;-53
2021/05/07 02:32:17;;;;;;;77.40;38.33;;;5.80;99.90;;;;;;5091918;28;20122;-54
2021/05/07 02:34:43;;;;;;;77.45;38.90;;;5.70;99.90;;;;;;5095444;28;20088;-55
2021/05/07 02:37:09;;;;;;;76.60;39.83;;;5.70;99.90;;;;;;5086265;28;20043;-52
2021/05/07 02:39:35;;;;;;;74.35;39.45;;;5.70;99.90;;;;;;5086069;28;20035;-56
2021/05/07 02:42:01;;;;;;;74.85;38.85;;;5.70;99.90;;;;;;5087008;28;20028;-56
2021/05/07 02:44:26;;;;;;;75.22;40.58;;;5.70;99.90;;;;;;5092642;28;20081;-57
2021/05/07 02:46:52;;;;;;;81.38;42.90;;;5.70;99.90;;;;;;5099239;28;20092;-57
2021/05/07 02:49:18;;;;;;;75.80;40.55;;;5.60;99.90;;;;;;5089044;28;20111;-57
2021/05/07 02:51:43;;;;;;;85.65;43.67;;;5.60;99.90;;;;;;5101286;28;20095;-53
2021/05/07 02:54:09;;;;;;;81.47;40.88;;;5.60;99.90;;;;;;5093149;28;20050;-54
2021/05/07 02:56:35;;;;;;;77.00;41.55;;;5.60;99.90;;;;;;5087729;28;20032;-56
2021/05/07 02:59:00;;;;;;;74.90;40.53;;;5.60;99.90;;;;;;5090397;28;20051;-56
2021/05/07 03:01:26;;;;;;;82.38;42.13;;;5.60;99.90;;;;;;5095358;28;20039;-56
2021/05/07 03:03:51;;;;;;;87.13;43.45;;;5.50;99.90;;;;;;5094384;28;20115;-55
2021/05/07 03:06:17;;;;;;;85.53;43.92;;;5.40;99.90;;;;;;5103954;28;20031;-56
2021/05/07 03:08:43;;;;;;;86.80;42.63;;;5.40;99.90;;;;;;5099798;28;20167;-55
2021/05/07 03:11:09;;;;;;;83.88;41.92;;;5.40;99.90;;;;;;5090139;28;20312;-56
2021/05/07 03:13:34;;;;;;;81.78;42.47;;;5.40;99.90;;;;;;5091250;28;20024;-57
2021/05/07 03:16:00;;;;;;;86.85;43.53;;;5.40;99.90;;;;;;5099050;28;20032;-57
2021/05/07 03:18:28;;;;;;;84.70;43.28;;;5.40;99.90;;;;;;5089482;28;20084;-56
2021/05/07 03:20:55;;;;;;;88.13;43.65;;;5.30;99.90;;;;;;5097624;28;20482;-54
2021/05/07 03:23:20;;;;;;;84.65;43.60;;;5.30;99.90;;;;;;5086702;28;20032;-55
2021/05/07 03:25:46;;;;;;;92.93;45.25;;;5.20;99.90;;;;;;5085428;28;20033;-54
2021/05/07 03:28:12;;;;;;;94.07;45.95;;;5.20;99.90;;;;;;5095248;28;20105;-56
2021/05/07 03:30:39;;;;;;;96.97;45.38;;;5.20;99.90;;;;;;5086692;28;20032;-54
2021/05/07 03:33:05;;;;;;;92.13;46.00;;;5.10;99.90;;;;;;5093103;28;20071;-56
2021/05/07 03:35:33;;;;;;;96.85;46.15;;;5.10;99.90;;;;;;5089007;28;20459;-54
2021/05/07 03:37:59;;;;;;;90.55;44.85;;;5.10;99.90;;;;;;5082926;28;20051;-54
2021/05/07 03:40:24;;;;;;;88.15;45.28;;;5.00;99.90;;;;;;5102077;28;20024;-56
2021/05/07 03:42:50;;;;;;;91.35;46.30;;;5.10;99.90;;;;;;5090534;28;20031;-54
2021/05/07 03:45:17;;;;;;;94.55;45.58;;;5.00;99.90;;;;;;5103023;28;20489;-56
2021/05/07 03:47:43;;;;;;;97.68;47.08;;;5.10;99.90;;;;;;5098311;28;20032;-54
2021/05/07 03:50:09;;;;;;;98.13;48.50;;;5.10;99.90;;;;;;5085729;28;20122;-54
2021/05/07 03:52:35;;;;;;;100.50;48.33;;;5.20;99.90;;;;;;5091602;28;20405;-57
2021/05/07 03:55:02;;;;;;;93.53;47.45;;;5.10;99.90;;;;;;5088737;28;20462;-56
2021/05/07 03:57:27;;;;;;;103.53;49.22;;;5.00;99.90;;;;;;5091559;28;20036;-57
2021/05/07 03:59:53;;;;;;;100.25;49.05;;;5.00;99.90;;;;;;5088122;28;20158;-55
2021/05/07 04:02:19;;;;;;;96.35;47.92;;;5.10;99.90;;;;;;5093095;28;20107;-56
2021/05/07 04:04:45;;;;;;;116.35;50.03;;;5.00;99.90;;;;;;5107180;28;20031;-56
2021/05/07 04:07:12;;;;;;;111.05;50.30;;;4.90;99.90;;;;;;5092413;28;20110;-56
2021/05/07 04:09:42;;;;;;;109.60;51.85;;;5.00;99.90;;;;;;5087608;28;20391;-54
2021/05/07 04:12:17;;;;;;;107.93;50.70;;;5.00;99.90;;;;;;5092971;28;20504;-53
2021/05/07 04:14:44;;;;;;;108.45;49.60;;;5.00;99.90;;;;;;5095572;28;20024;-54
2021/05/07 04:17:10;;;;;;;108.15;50.70;;;5.00;99.90;;;;;;5087334;28;20033;-53
2021/05/07 04:19:35;;;;;;;105.35;51.58;;;4.90;99.90;;;;;;5095522;28;20032;-55
2021/05/07 04:22:01;;;;;;;113.95;50.55;;;4.80;99.90;;;;;;5088864;28;20024;-54
2021/05/07 04:24:26;;;;;;;100.47;49.13;;;4.90;99.90;;;;;;5089924;28;20551;-55
2021/05/07 04:26:54;;;;;;;105.00;52.38;;;4.90;99.90;;;;;;5089088;28;20031;-56
2021/05/07 04:29:21;;;;;;;109.03;50.08;;;4.90;99.90;;;;;;5084392;28;20059;-54
2021/05/07 04:31:47;;;;;;;105.20;49.65;;;5.00;99.90;;;;;;5086301;28;20436;-55
2021/05/07 04:34:13;;;;;;;103.95;48.88;;;5.00;99.90;;;;;;5082162;28;20026;-56
2021/05/07 04:36:38;;;;;;;106.25;49.35;;;5.00;99.90;;;;;;5085216;28;20378;-55
2021/05/07 04:39:04;;;;;;;103.00;46.88;;;5.00;99.90;;;;;;5090535;28;20472;-53
2021/05/07 04:41:30;;;;;;;104.43;50.67;;;5.00;99.90;;;;;;5093474;28;20475;-57
2021/05/07 04:43:55;;;;;;;100.07;48.72;;;5.10;99.90;;;;;;5095356;28;20047;-58
2021/05/07 04:46:21;;;;;;;101.15;50.50;;;5.10;99.90;;;;;;5096815;28;20440;-55
2021/05/07 04:48:47;;;;;;;105.00;50.13;;;5.10;99.90;;;;;;5096463;28;20028;-55
2021/05/07 04:51:12;;;;;;;100.75;50.00;;;5.10;99.90;;;;;;5094674;28;20035;-55
2021/05/07 04:53:38;;;;;;;98.85;51.45;;;5.10;99.90;;;;;;5095886;28;20389;-54
2021/05/07 04:56:03;;;;;;;98.68;47.90;;;5.10;99.90;;;;;;5101469;28;20024;-54
2021/05/07 04:58:29;;;;;;;105.55;49.58;;;5.10;99.90;;;;;;5095286;28;20418;-54
2021/05/07 05:00:54;;;;;;;107.03;49.95;;;4.90;99.90;;;;;;5089596;28;20086;-55
2021/05/07 05:03:20;;;;;;;107.30;51.58;;;4.90;99.90;;;;;;5091434;28;20020;-58
2021/05/07 05:05:45;;;;;;;115.93;51.92;;;4.90;99.90;;;;;;5092955;28;20036;-58
2021/05/07 05:08:11;;;;;;;109.22;51.55;;;4.80;99.90;;;;;;5093535;28;20036;-58
2021/05/07 05:10:37;;;;;;;117.00;55.80;;;4.80;99.90;;;;;;5094262;28;20110;-54
2021/05/07 05:13:02;;;;;;;120.45;54.95;;;4.80;99.90;;;;;;5086004;28;20362;-54
2021/05/07 05:15:28;;;;;;;116.75;53.88;;;4.80;99.90;;;;;;5096881;28;20035;-54
2021/05/07 05:17:53;;;;;;;111.53;52.05;;;4.90;99.90;;;;;;5091955;28;20043;-56
2021/05/07 05:20:19;;;;;;;106.60;51.65;;;4.90;99.90;;;;;;5096429;28;20115;-54
2021/05/07 05:22:45;;;;;;;110.50;50.92;;;5.00;99.90;;;;;;5091475;28;20020;-53
2021/05/07 05:27:39;;;;;;;112.53;52.80;;;5.30;99.90;;;;;;5144410;22;20063;-55
2021/05/07 05:30:06;;;;;;;107.35;53.50;;;5.40;99.90;;;;;;5132433;27;20027;-58
2021/05/07 05:32:31;;;;;;;96.18;48.75;;;5.60;99.90;;;;;;5128571;27;20034;-59
2021/05/07 05:34:57;;;;;;;98.53;46.95;;;5.70;99.90;;;;;;5122681;27;20015;-58
2021/05/07 05:37:24;;;;;;;102.72;50.97;;;5.80;99.90;;;;;;5112345;27;20035;-60
2021/05/07 05:39:50;;;;;;;98.10;48.75;;;5.90;99.90;;;;;;5107300;27;20027;-60
2021/05/07 05:42:15;;;;;;;92.07;45.85;;;6.00;99.90;;;;;;5102124;28;20526;-59
2021/05/07 05:44:41;;;;;;;93.22;47.85;;;6.00;99.90;;;;;;5112668;28;20032;-60
2021/05/07 05:47:06;;;;;;;103.72;49.15;;;6.10;99.90;;;;;;5106431;27;20026;-60
2021/05/07 05:49:32;;;;;;;86.03;45.15;;;6.20;99.90;;;;;;5104860;28;20027;-60
2021/05/07 05:51:57;;;;;;;82.55;43.83;;;6.30;99.90;;;;;;5099909;28;20387;-60
2021/05/07 05:54:23;;;;;;;88.90;46.60;;;6.40;99.90;;;;;;5106215;27;20038;-60
2021/05/07 05:56:48;;;;;;;98.53;48.00;;;6.50;99.90;;;;;;5102008;28;20104;-58
2021/05/07 05:59:14;;;;;;;97.13;49.08;;;6.60;99.90;;;;;;5107051;27;20055;-60
2021/05/07 06:01:40;;;;;;;103.82;49.20;;;6.60;99.90;;;;;;5106901;27;20027;-60
2021/05/07 06:04:06;;;;;;;91.35;48.10;;;6.60;99.90;;;;;;5104198;28;20043;-59
2021/05/07 06:06:31;;;;;;;84.82;44.67;;;6.60;99.90;;;;;;5103117;28;20469;-59
2021/05/07 06:08:57;;;;;;;92.45;45.80;;;6.60;99.90;;;;;;5103850;28;20046;-58
2021/05/07 06:11:23;;;;;;;87.90;44.97;;;6.60;99.90;;;;;;5103029;27;20103;-64
2021/05/07 06:13:48;;;;;;;102.22;50.53;;;6.60;99.90;;;;;;5100229;28;20031;-63
2021/05/07 06:16:14;;;;;;;106.35;49.53;;;6.60;99.90;;;;;;5104821;27;20103;-62
2021/05/07 06:18:39;;;;;;;100.28;48.58;;;6.60;99.90;;;;;;5102889;28;20092;-62
2021/05/07 06:21:05;;;;;;;103.53;49.20;;;6.60;99.90;;;;;;5110140;28;20028;-64
2021/05/07 06:23:31;;;;;;;104.10;50.88;;;6.70;99.90;;;;;;5104702;27;20084;-64
2021/05/07 06:25:56;;;;;;;107.40;52.42;;;6.70;99.90;;;;;;5109017;27;20469;-64
2021/05/07 06:28:22;;;;;;;101.65;47.53;;;6.80;99.90;;;;;;5101783;27;20084;-64
2021/05/07 06:30:47;;;;;;;93.32;44.28;;;6.80;99.90;;;;;;5106866;28;20027;-64
2021/05/07 06:33:13;;;;;;;86.68;43.60;;;6.80;99.90;;;;;;5103335;28;20032;-64
2021/05/07 06:35:39;;;;;;;91.47;42.72;;;6.80;99.90;;;;;;5101811;28;20028;-63
2021/05/07 06:38:09;;;;;;;98.68;46.05;;;6.80;99.90;;;;;;5103355;28;20020;-63
2021/05/07 06:40:35;;;;;;;78.63;42.45;;;6.70;99.90;;;;;;5110937;27;20031;-64
2021/05/07 06:43:00;;;;;;;80.05;41.80;;;6.70;99.90;;;;;;5110445;28;20028;-63
2021/05/07 06:45:26;;;;;;;75.80;40.08;;;6.70;99.90;;;;;;5109573;28;20060;-63
2021/05/07 06:47:52;;;;;;;86.22;41.42;;;6.80;99.90;;;;;;5093902;28;20047;-64
2021/05/07 06:50:18;;;;;;;81.07;40.80;;;6.80;99.90;;;;;;5101731;28;20059;-64
2021/05/07 06:52:44;;;;;;;75.10;38.25;;;6.80;99.90;;;;;;5102633;28;20228;-64
2021/05/07 06:55:11;;;;;;;72.85;37.05;;;6.80;99.90;;;;;;5104425;27;20855;-64
2021/05/07 06:57:37;;;;;;;76.13;37.92;;;6.70;99.90;;;;;;5098183;28;20040;-64
2021/05/07 07:00:05;;;;;;;68.78;38.15;;;6.70;99.90;;;;;;5102242;28;20028;-64
2021/05/07 07:02:31;;;;;;;70.93;36.60;;;6.60;99.90;;;;;;5103304;27;20032;-64
2021/05/07 07:04:57;;;;;;;67.93;33.95;;;6.60;99.90;;;;;;5101952;28;20114;-63
2021/05/07 07:07:25;;;;;;;64.53;34.03;;;6.50;99.90;;;;;;5104241;28;20088;-64
2021/05/07 07:09:50;;;;;;;60.50;33.88;;;6.50;99.90;;;;;;5103400;28;20060;-64
2021/05/07 07:12:16;;;;;;;64.68;33.75;;;6.60;99.90;;;;;;5101949;27;20622;-66
2021/05/07 07:14:42;;;;;;;65.45;33.63;;;6.60;99.90;;;;;;5104360;28;20051;-64
2021/05/07 07:17:07;;;;;;;63.20;32.72;;;6.70;99.90;;;;;;5100068;28;20089;-63
2021/05/07 07:19:34;;;;;;;63.58;31.42;;;6.60;99.90;;;;;;5106965;27;20028;-64
2021/05/07 07:22:00;;;;;;;58.17;31.38;;;6.60;99.90;;;;;;5101341;28;20062;-63
2021/05/07 07:24:26;;;;;;;52.20;30.20;;;6.70;99.90;;;;;;5104145;28;20048;-63
2021/05/07 07:26:53;;;;;;;53.75;29.88;;;6.80;99.90;;;;;;5103596;27;20028;-64
2021/05/07 07:29:18;;;;;;;52.13;29.95;;;6.80;99.90;;;;;;5108134;28;20019;-64
2021/05/07 07:31:44;;;;;;;55.03;29.92;;;6.80;99.90;;;;;;5103446;27;20382;-63
2021/05/07 07:34:09;;;;;;;57.55;31.77;;;6.90;99.90;;;;;;5109185;28;20134;-64
2021/05/07 07:36:35;;;;;;;59.95;31.85;;;6.90;99.90;;;;;;5104902;27;20031;-64
2021/05/07 07:39:01;;;;;;;54.15;30.25;;;6.90;99.90;;;;;;5102185;28;20074;-64
2021/05/07 07:41:26;;;;;;;54.90;30.13;;;6.90;99.90;;;;;;5103055;27;20084;-63
2021/05/07 07:43:52;;;;;;;61.80;31.80;;;6.90;99.90;;;;;;5102202;28;20107;-64
2021/05/07 07:46:19;;;;;;;68.35;33.42;;;7.00;99.90;;;;;;5107145;27;20088;-64
2021/05/07 07:48:45;;;;;;;55.20;31.75;;;7.00;99.90;;;;;;5102129;28;20034;-64
2021/05/07 07:51:10;;;;;;;51.75;26.20;;;7.00;99.90;;;;;;5107951;27;20024;-63
2021/05/07 07:53:36;;;;;;;47.22;25.33;;;7.10;99.90;;;;;;5104900;28;20027;-63
2021/05/07 07:56:01;;;;;;;40.90;23.13;;;7.10;99.90;;;;;;5097156;28;20032;-64
2021/05/07 07:58:27;;;;;;;33.85;20.13;;;7.20;99.90;;;;;;5102817;28;20480;-63
2021/05/07 08:00:54;;;;;;;27.35;14.80;;;7.40;99.90;;;;;;5104439;28;20024;-62
2021/05/07 08:03:20;;;;;;;28.33;14.52;;;7.40;99.90;;;;;;5106146;27;20023;-64
2021/05/07 08:05:46;;;;;;;25.13;13.15;;;7.50;99.90;;;;;;5108040;27;20491;-60
2021/05/07 08:08:11;;;;;;;24.23;12.60;;;7.40;99.90;;;;;;5105967;28;20729;-59
2021/05/07 08:10:37;;;;;;;20.75;12.90;;;7.40;99.90;;;;;;5106739;28;20546;-60
2021/05/07 08:13:02;;;;;;;21.88;14.35;;;7.30;99.90;;;;;;5105572;28;20032;-60
2021/05/07 08:15:28;;;;;;;18.60;11.00;;;7.30;99.90;;;;;;5106049;28;20084;-60
2021/05/07 08:17:54;;;;;;;12.27;6.93;;;7.00;99.90;;;;;;5103115;28;20595;-61
2021/05/07 08:20:21;;;;;;;12.18;7.30;;;6.50;99.90;;;;;;5101351;28;20027;-62
2021/05/07 08:22:48;;;;;;;12.25;8.18;;;5.80;99.90;;;;;;5097833;28;20036;-62
2021/05/07 08:25:14;;;;;;;12.65;7.38;;;5.60;99.90;;;;;;5103743;27;20016;-63
2021/05/07 08:27:40;;;;;;;14.98;9.02;;;5.30;99.90;;;;;;5097467;28;20051;-63
2021/05/07 08:30:07;;;;;;;13.23;7.47;;;5.20;99.90;;;;;;5102021;28;20036;-63
2021/05/07 08:32:33;;;;;;;12.30;7.93;;;5.10;99.90;;;;;;5097087;28;20032;-63
2021/05/07 08:34:59;;;;;;;15.27;9.65;;;5.10;99.90;;;;;;5102650;28;20034;-63
2021/05/07 08:37:25;;;;;;;15.10;9.63;;;5.20;99.90;;;;;;5104005;28;20466;-63
2021/05/07 08:39:52;;;;;;;17.48;9.60;;;5.20;99.90;;;;;;5101024;28;20099;-62
2021/05/07 08:42:20;;;;;;;13.07;8.00;;;5.30;99.90;;;;;;5104558;28;20024;-63
2021/05/07 08:44:46;;;;;;;11.75;8.25;;;5.40;99.90;;;;;;5102553;28;20438;-62
2021/05/07 08:47:19;;;;;;;18.08;10.50;;;5.30;99.90;;;;;;5107250;28;20027;-62
2021/05/07 08:49:49;;;;;;;16.38;10.77;;;5.40;99.90;;;;;;5104486;28;20023;-64
2021/05/07 08:52:19;;;;;;;16.95;11.68;;;5.50;99.90;;;;;;5098164;28;20379;-63
2021/05/07 08:54:46;;;;;;;23.60;13.40;;;5.40;99.90;;;;;;5105344;28;20102;-62
2021/05/07 08:57:12;;;;;;;23.63;15.65;;;5.40;99.90;;;;;;5101824;28;20052;-62
2021/05/07 08:59:38;;;;;;;27.85;16.80;;;5.40;99.90;;;;;;5098985;28;20036;-62
2021/05/07 09:02:04;;;;;;;26.40;16.33;;;5.40;99.90;;;;;;5104249;28;20027;-63
2021/05/07 09:04:30;;;;;;;28.38;17.75;;;5.40;99.90;;;;;;5101503;28;20054;-62
2021/05/07 09:06:56;;;;;;;25.45;16.98;;;5.30;99.90;;;;;;5100642;28;20020;-63
2021/05/07 09:09:29;;;;;;;36.20;20.73;;;5.40;99.90;;;;;;5104199;28;20035;-62
2021/05/07 09:11:56;;;;;;;36.28;21.77;;;5.50;99.90;;;;;;5104400;28;20026;-63
2021/05/07 09:14:23;;;;;;;34.97;21.75;;;5.60;99.90;;;;;;5105619;28;20068;-62
2021/05/07 09:16:58;;;;;;;46.83;27.52;;;5.80;99.90;;;;;;5102993;28;20063;-62
2021/05/07 09:19:31;;;;;;;37.28;21.83;;;5.90;99.90;;;;;;5104377;28;20027;-63
2021/05/07 09:21:58;;;;;;;21.73;14.17;;;6.20;99.90;;;;;;5099107;28;20074;-61
2021/05/07 09:24:50;;;;;;;24.85;15.55;;;6.40;99.90;;;;;;5105354;28;20277;-62
2021/05/07 09:27:22;;;;;;;20.80;14.80;;;6.70;99.90;;;;;;5101668;28;20071;-60
2021/05/07 09:29:48;;;;;;;16.48;10.48;;;6.80;99.90;;;;;;5105988;27;20107;-59
2021/05/07 09:32:14;;;;;;;19.20;11.30;;;6.60;99.90;;;;;;5102776;28;20127;-62
2021/05/07 09:34:39;;;;;;;16.02;10.15;;;6.50;99.90;;;;;;5108331;28;20110;-61
2021/05/07 09:37:17;;;;;;;18.92;12.00;;;6.60;99.90;;;;;;5102991;28;20482;-62
2021/05/07 09:39:43;;;;;;;18.70;13.13;;;6.70;99.90;;;;;;5105053;28;20042;-62
2021/05/07 09:42:20;;;;;;;21.90;14.60;;;6.70;99.90;;;;;;5102396;27;20025;-62
2021/05/07 09:44:46;;;;;;;20.92;13.80;;;6.70;99.90;;;;;;5104869;27;20024;-63
2021/05/07 09:47:14;;;;;;;17.40;12.88;;;7.00;99.90;;;;;;5099832;28;20031;-61
2021/05/07 09:49:40;;;;;;;15.88;11.32;;;7.00;99.90;;;;;;5108327;27;20043;-62
2021/05/07 09:52:07;;;;;;;16.10;11.00;;;7.10;99.90;;;;;;5107624;27;20028;-62
2021/05/07 09:54:34;;;;;;;17.77;11.45;;;7.20;99.90;;;;;;5108974;28;20485;-63
2021/05/07 09:57:01;;;;;;;14.52;10.88;;;7.40;99.90;;;;;;5106939;27;20035;-62
2021/05/07 09:59:29;;;;;;;14.63;10.38;;;7.60;99.90;;;;;;5108030;28;20081;-63
2021/05/07 10:01:55;;;;;;;13.73;10.10;;;7.90;99.90;;;;;;5102564;27;20024;-62
2021/05/07 10:04:21;;;;;;;15.48;10.18;;;8.00;99.90;;;;;;5106584;28;20027;-62
2021/05/07 10:06:47;;;;;;;15.98;10.52;;;8.10;99.90;;;;;;5101385;28;20027;-62
2021/05/07 10:09:23;;;;;;;13.98;9.07;;;8.40;99.90;;;;;;5108845;27;20066;-62
2021/05/07 10:11:50;;;;;;;15.48;8.60;;;8.50;99.90;;;;;;5104224;28;20032;-63
2021/05/07 10:14:17;;;;;;;11.93;8.05;;;8.40;99.90;;;;;;5105131;27;20495;-63
2021/05/07 10:16:43;;;;;;;14.48;7.18;;;8.20;99.90;;;;;;5099481;28;20033;-62
2021/05/07 10:19:13;;;;;;;12.02;7.75;;;8.00;99.90;;;;;;5104644;28;20023;-64
2021/05/07 10:21:44;;;;;;;11.23;6.00;;;7.80;99.90;;;;;;5108623;27;20477;-62
2021/05/07 10:24:13;;;;;;;10.43;6.38;;;8.10;99.90;;;;;;5105480;28;20397;-61
2021/05/07 10:26:46;;;;;;;7.25;4.20;;;8.70;99.90;;;;;;5108478;27;20031;-62
2021/05/07 10:29:17;;;;;;;5.78;2.80;;;9.30;99.90;;;;;;5104926;27;20031;-61
2021/05/07 10:31:48;;;;;;;4.88;3.40;;;9.50;99.90;;;;;;5102332;28;20028;-60
2021/05/07 10:34:17;;;;;;;5.97;2.92;;;9.40;99.90;;;;;;5107840;28;20068;-60
2021/05/07 10:36:47;;;;;;;5.15;3.05;;;9.30;99.90;;;;;;5101181;27;20035;-61
2021/05/07 10:39:30;;;;;;;4.95;2.33;;;9.30;99.90;;;;;;5102219;28;20410;-61
2021/05/07 10:42:00;;;;;;;6.22;2.42;;;9.60;99.90;;;;;;5109641;27;20020;-61
2021/05/07 10:44:28;;;;;;;2.83;2.08;;;10.10;99.90;;;;;;5100842;28;20027;-60
2021/05/07 10:47:09;;;;;;;4.18;2.28;;;10.20;99.90;;;;;;5108460;27;20542;-59
2021/05/07 10:49:44;;;;;;;4.45;2.55;;;10.30;99.90;;;;;;5106937;28;20080;-61
2021/05/07 10:52:11;;;;;;;4.63;2.78;;;10.20;99.90;;;;;;5103165;27;20431;-61
2021/05/07 10:54:43;;;;;;;6.47;2.88;;;9.90;99.90;;;;;;5105455;28;20119;-61
2021/05/07 10:57:26;;;;;;;4.10;2.95;;;9.50;99.90;;;;;;5112979;27;20118;-60
2021/05/07 10:59:56;;;;;;;8.43;2.58;;;9.80;99.90;;;;;;5105627;28;20038;-60
2021/05/07 11:02:23;;;;;;;5.00;2.35;;;9.90;99.90;;;;;;5106017;27;20133;-61
2021/05/07 11:04:49;;;;;;;2.95;2.55;;;10.40;99.90;;;;;;5108801;28;20031;-60
2021/05/07 11:07:30;;;;;;;8.52;2.50;;;10.10;99.90;;;;;;5109823;27;20043;-62
2021/05/07 11:10:05;;;;;;;4.50;2.55;;;9.80;99.90;;;;;;5108810;27;20027;-61
2021/05/07 11:12:30;;;;;;;5.43;2.83;;;9.70;99.90;;;;;;5104123;28;20416;-61
2021/05/07 11:14:56;;;;;;;4.22;2.40;;;10.20;99.90;;;;;;5102874;28;20072;-60
2021/05/07 11:17:22;;;;;;;3.08;1.85;;;10.90;99.90;;;;;;5105696;27;20639;-60
2021/05/07 11:19:48;;;;;;;8.00;2.40;;;11.00;99.90;;;;;;5102839;28;20026;-60
2021/05/07 11:22:14;;;;;;;6.70;2.17;;;10.60;99.90;;;;;;5101865;27;20167;-61
2021/05/07 11:24:42;;;;;;;6.05;1.98;;;10.50;99.90;;;;;;5105274;27;20036;-61
2021/05/07 11:27:21;;;;;;;4.88;2.38;;;10.50;99.90;;;;;;5102989;27;20023;-61
2021/05/07 11:29:47;;;;;;;3.90;2.38;;;10.40;99.90;;;;;;5115241;22;20048;-53
2021/05/07 11:32:18;;;;;;;3.00;1.60;;;10.20;99.90;;;;;;5077990;28;20032;-52
2021/05/07 11:34:55;;;;;;;2.67;1.98;;;10.10;99.90;;;;;;5082138;28;20036;-54
2021/05/07 11:37:22;;;;;;;3.13;2.33;;;10.20;99.90;;;;;;5085047;28;20032;-54
2021/05/07 11:40:08;;;;;;;7.25;3.20;;;10.70;99.90;;;;;;5068328;28;20025;-55
2021/05/07 11:42:47;;;;;;;8.32;2.33;;;11.20;99.90;;;;;;5060591;28;20029;-54
2021/05/07 11:45:24;;;;;;;6.25;2.22;;;11.10;99.90;;;;;;5066735;28;20029;-55
2021/05/07 11:47:50;;;;;;;3.17;2.17;;;10.80;99.90;;;;;;5066305;28;20118;-54
2021/05/07 11:50:18;;;;;;;4.15;2.30;;;10.70;99.90;;;;;;5066015;28;20036;-55
2021/05/07 11:52:47;;;;;;;3.92;2.35;;;10.60;99.90;;;;;;5066169;28;20028;-52
2021/05/07 11:55:18;;;;;;;4.90;2.10;;;10.70;99.90;;;;;;5062171;28;20029;-53
2021/05/07 11:58:05;;;;;;;6.60;2.70;;;11.10;99.90;;;;;;5069655;28;20032;-53
2021/05/07 12:00:32;;;;;;;6.97;2.42;;;11.20;99.90;;;;;;5062646;28;20035;-55
2021/05/07 12:03:14;;;;;;;5.72;2.72;;;11.20;99.90;;;;;;5065471;28;20097;-56
2021/05/07 12:05:44;;;;;;;4.72;2.28;;;11.10;99.90;;;;;;5064061;28;20086;-56
2021/05/07 12:08:11;;;;;;;2.47;1.95;;;11.20;99.90;;;;;;5043907;28;20123;-54
2021/05/07 12:10:39;;;;;;;3.95;2.67;;;11.40;99.90;;;;;;5063875;28;20031;-54
2021/05/07 12:13:05;;;;;;;3.85;2.20;;;11.30;99.90;;;;;;5059104;28;20483;-54
2021/05/07 12:15:44;;;;;;;4.53;2.15;;;11.10;99.90;;;;;;5063879;28;20110;-56
2021/05/07 12:18:21;;;;;;;7.82;3.20;;;11.20;99.90;;;;;;5061420;28;20051;-54
2021/05/07 12:20:50;;;;;;;3.45;2.42;;;11.20;99.90;;;;;;5059656;28;20083;-52
2021/05/07 12:23:16;;;;;;;3.63;2.30;;;11.20;99.90;;;;;;5065635;28;20052;-54
2021/05/07 12:25:43;;;;;;;4.32;2.45;;;11.20;99.90;;;;;;5065780;28;20506;-52
2021/05/07 12:28:13;;;;;;;6.78;3.13;;;11.20;99.90;;;;;;5065578;28;20025;-54
2021/05/07 12:30:39;;;;;;;3.85;3.30;;;11.00;99.90;;;;;;5046734;28;20055;-55
2021/05/07 12:33:15;;;;;;;6.47;2.97;;;10.90;99.90;;;;;;5065136;28;20422;-52
2021/05/07 12:35:45;;;;;;;4.95;3.22;;;10.80;99.90;;;;;;5063841;28;20042;-56
2021/05/07 12:38:23;;;;;;;5.82;2.50;;;11.20;99.90;;;;;;5059679;28;20036;-53
2021/05/07 12:40:53;;;;;;;6.97;3.55;;;11.70;99.90;;;;;;5062807;28;20028;-54